• Join FlightAware (Why Join?)
  • Login
  • US Flag 
11:56PM EDT


 

Airport Tracker/Info


-or-


 

Live Flight TrackerFlight Track Log ✈ EJA929 ✈ 06-Sep-2013 ✈ CYQA - KATL

Flight Track Log - Related Links

Times and Time Zones

All times are in EDT time to prevent confusion due to time zone crossing. See the EJA929 flight status page for this flight to view local times or setup timezone preferences in your user account.

Time Position Orientation Groundspeed Altitude Reporting Facility
EDT Latitude Longitude Course Direction KTS MPH feet Rate Location/Type
10:37AM 45.0000 -79.2000 196° South 270 311 6,000  Level Toronto Center
10:38AM 44.9167 -79.2333 196° South 300 345 8,800 2,580 Climbing Toronto Center
10:39AM 44.8333 -79.2500 188° South 330 380 11,200 2,280 Climbing Toronto Center
10:40AM 44.7333 -79.3000 200° South 350 403 13,400 1,800 Climbing Toronto Center
10:41AM 44.6333 -79.3500 200° South 380 437 14,800 1,560 Climbing Toronto Center
10:42AM 44.5167 -79.4000 197° South 400 460 16,600 1,500 Climbing Toronto Center
10:43AM 44.4000 -79.4167 186° South 420 483 17,800 1,140 Climbing Toronto Center
10:44AM 44.2833 -79.4167 180° South 430 495 18,900 1,140 Climbing Toronto Center
10:45AM 44.1667 -79.4500 192° South 440 506 20,100 1,200 Climbing Toronto Center
10:46AM 44.0333 -79.4667 185° South 450 518 21,400 1,260 Climbing Toronto Center
10:47AM 43.9167 -79.5333 202° Southwest 460 529 22,700 1,260 Climbing Toronto Center
10:48AM 43.8000 -79.5833 197° South 470 541 24,000 1,200 Climbing Toronto Center
10:49AM 43.6500 -79.6500 198° South 490 564 25,100 1,020 Climbing Toronto Center
10:50AM 43.5167 -79.7000 195° South 510 587 26,100 960 Climbing Toronto Center
10:51AM 43.3833 -79.7667 200° South 510 587 27,100 960 Climbing Toronto Center
10:52AM 43.2500 -79.8333 200° South 520 598 28,100 960 Climbing Toronto Center
10:53AM 43.1000 -79.8833 194° South 530 610 29,100 900 Climbing Toronto Center
10:54AM 42.9667 -79.9500 200° South 540 621 30,000 900 Climbing Toronto Center
10:54AM 42.8550 -80.0308 208° Southwest 553 636 30,800 960 Climbing Cleveland Center
10:55AM 42.7050 -80.0917 197° South 558 642 31,800 960 Climbing Cleveland Center
10:56AM 42.5553 -80.1547 197° South 563 648 32,800 960 Climbing Cleveland Center
10:57AM 42.4033 -80.2233 198° South 563 648 33,800 1,020 Climbing Cleveland Center
10:58AM 42.2536 -80.2886 198° South 568 654 34,900 1,140 Climbing Cleveland Center
10:59AM 42.1014 -80.3536 198° South 568 654 36,100 1,260 Climbing Cleveland Center
11:00AM 41.9494 -80.4156 197° South 573 659 37,500 1,260 Climbing Cleveland Center
11:01AM 41.8139 -80.4744 198° South 578 665 38,700 1,440 Climbing Cleveland Center
11:02AM 41.6681 -80.5358 197° South 565 650 40,400 1,680 Climbing Cleveland Center
11:03AM 41.5328 -80.5914 197° South 538 619 42,100 1,260 Climbing Cleveland Center
11:04AM 41.3972 -80.6467 197° South 518 596 43,000 420 Climbing Cleveland Center
11:05AM 41.2617 -80.7131 200° South 518 596 43,000  Level Cleveland Center
11:06AM 41.1406 -80.7789 202° Southwest 528 608 43,000  Level Cleveland Center
11:07AM 40.9944 -80.8556 202° Southwest 528 608 43,000  Level Cleveland Center
11:08AM 40.8589 -80.9289 202° Southwest 523 602 43,000  Level Cleveland Center
11:09AM 40.7231 -81.0050 203° Southwest 528 608 43,000  Level Cleveland Center
11:10AM 40.5706 -81.0861 202° Southwest 535 616 43,000  Level Cleveland Center
11:11AM 40.4367 -81.1586 202° Southwest 535 616 43,000  Level Cleveland Center
11:12AM 40.2942 -81.2306 201° Southwest 530 610 43,000  Level Indianapolis Center
11:13AM 40.1564 -81.3053 203° Southwest 528 608 43,000  Level Indianapolis Center
11:15AM 40.0194 -81.3761 202° Southwest 526 605 43,000  Level Indianapolis Center
11:16AM 39.8742 -81.4522 202° Southwest 527 606 43,000  Level Indianapolis Center
11:17AM 39.7375 -81.5239 202° Southwest 528 608 43,000  Level Indianapolis Center
11:18AM 39.5908 -81.5989 202° Southwest 526 605 43,000  Level Indianapolis Center
11:19AM 39.4547 -81.6692 202° Southwest 527 606 43,000  Level Indianapolis Center
11:20AM 39.3186 -81.7397 202° Southwest 528 608 43,000  Level Indianapolis Center
11:21AM 39.1831 -81.8081 201° Southwest 526 605 43,000  Level Indianapolis Center
11:22AM 39.0489 -81.8761 202° Southwest 521 600 43,000  Level Indianapolis Center
11:23AM 38.8875 -81.9597 202° Southwest 525 604 43,000  Level Indianapolis Center
11:24AM 38.7528 -82.0283 202° Southwest 525 604 43,000  Level Indianapolis Center
11:25AM 38.6247 -82.1153 208° Southwest 525 604 43,000  Level Indianapolis Center
11:26AM 38.4972 -82.2017 208° Southwest 522 601 43,000  Level Indianapolis Center
11:27AM 38.3686 -82.2878 208° Southwest 523 602 43,000  Level Indianapolis Center
11:28AM 38.2164 -82.3936 209° Southwest 521 600 43,000  Level Indianapolis Center
11:29AM 38.0969 -82.4708 207° Southwest 522 601 43,000  Level Indianapolis Center
11:30AM 37.9681 -82.5578 208° Southwest 523 602 43,000  Level Indianapolis Center
11:31AM 37.8167 -82.6578 208° Southwest 526 605 43,000  Level Indianapolis Center
11:32AM 37.6869 -82.7439 208° Southwest 526 605 43,000  Level Indianapolis Center
11:33AM 37.5442 -82.7828 192° South 526 605 43,000  Level Indianapolis Center
11:34AM 37.3992 -82.8053 187° South 522 601 43,000  Level Indianapolis Center
11:35AM 37.2553 -82.8275 187° South 521 600 43,000  Level Indianapolis Center
11:36AM 37.1100 -82.8503 187° South 523 602 43,000  Level Indianapolis Center
11:37AM 36.9372 -82.8767 187° South 530 610 43,000  Level Indianapolis Center
11:38AM 36.8028 -82.8967 187° South 534 615 43,000  Level Indianapolis Center
11:39AM 36.6583 -82.9197 187° South 524 603 43,000  Level Indianapolis Center
11:40AM 36.4883 -82.9453 187° South 525 604 43,000  Level Indianapolis Center
11:41AM 36.3425 -82.9675 187° South 526 605 43,000  Level Indianapolis Center
11:42AM 36.2436 -82.9833 187° South 527 606 43,000  Level Atlanta Center
11:43AM 36.0978 -83.0058 187° South 533 613 43,000 -120 Level Atlanta Center
11:44AM 35.9497 -83.0281 187° South 533 613 42,800 -660 Descending Atlanta Center
11:45AM 35.8019 -83.0503 187° South 538 619 41,700 -1,140 Descending Atlanta Center
11:46AM 35.6603 -83.0828 191° South 533 613 40,600 -1,200 Descending Atlanta Center
11:47AM 35.5228 -83.1150 191° South 517 595 39,300 -1,620 Descending Atlanta Center
11:48AM 35.3686 -83.1472 190° South 512 589 37,400 -1,860 Descending Atlanta Center
11:49AM 35.2269 -83.1819 191° South 512 589 35,600 -1,740 Descending Atlanta Center
11:50AM 35.1000 -83.2111 191° South 512 589 34,000 -2,040 Descending Atlanta Center
11:51AM 34.9753 -83.2681 201° Southwest 501 577 31,600 -2,640 Descending Atlanta Center
11:52AM 34.8442 -83.3581 209° Southwest 492 566 28,800 -2,700 Descending Atlanta Center
11:53AM 34.7194 -83.4397 208° Southwest 499 574 26,300 -2,460 Descending Atlanta Center
11:54AM 34.5986 -83.5164 208° Southwest 499 574 23,900 -2,220 Descending Atlanta Center
11:55AM 34.4947 -83.5850 209° Southwest 484 557 21,900 -2,100 Descending Atlanta Center
11:56AM 34.3822 -83.6586 208° Southwest 471 542 19,700 -2,100 Descending Atlanta Center
11:57AM 34.2697 -83.7297 208° Southwest 459 528 17,700 -2,280 Descending Atlanta Center
11:58AM 34.1614 -83.7953 207° Southwest 452 520 15,200 -1,860 Descending Atlanta Center
11:59AM 34.0614 -83.8733 213° Southwest 447 514 14,000 -1,140 Descending Atlanta Center
12:00PM 34.0000 -83.9333 219° Southwest 428 493 13,400 -1,020 Descending Atlanta TRACON
12:01PM 33.9000 -84.0167 215° Southwest 435 501 12,400 -720 Descending Atlanta TRACON
12:02PM 33.8000 -84.1000 215° Southwest 430 495 12,000 -240 Descending Atlanta TRACON
12:03PM 33.7333 -84.2167 236° Southwest 423 487 12,000 -60 Level Atlanta TRACON
12:04PM 33.7333 -84.3333 270° West 358 412 11,900 -600 Descending Atlanta TRACON
12:05PM 33.7333 -84.4333 270° West 312 359 10,800 -1,320 Descending Atlanta TRACON
12:06PM 33.7333 -84.5333 270° West 271 312 9,300 -1,620 Descending Atlanta TRACON
12:07PM 33.7333 -84.6167 270° West 271 312 7,800 -1,680 Descending Atlanta TRACON
12:08PM 33.7333 -84.7000 270° West 268 308 6,100 -1,440 Descending Atlanta TRACON
12:09PM 33.7333 -84.7833 270° West 242 278 5,000 -600 Descending Atlanta TRACON
12:10PM 33.7333 -84.8667 270° West 248 285 5,000  Level Atlanta TRACON
12:11PM 33.6667 -84.8833 192° South 227 261 5,000  Level Atlanta TRACON
12:12PM 33.6500 -84.8167 107° East 212 244 5,000  Level Atlanta TRACON
12:13PM 33.6500 -84.7500 90° East 172 198 5,000  Level Atlanta TRACON
12:14PM 33.6500 -84.7000 90° East 172 198 5,000 -300 Level Atlanta TRACON
12:15PM 33.6500 -84.6333 90° East 180 207 4,500 -780 Descending Atlanta TRACON
12:16PM 33.6500 -84.5833 90° East 198 228 3,500 -1,140 Descending Atlanta TRACON
12:17PM 33.6500 -84.5167 90° East 192 221 2,300 -1,140 Descending Atlanta TRACON
12:17PM 33.6500 -84.4500 90° East 166 191 1,400 -1,020 Descending Atlanta TRACON
12:19PM 33.6367 -84.4279 103° East  Level Estimated
12:26PM 33.6367 -84.4279 103° East  Level Estimated
12:27PM 33.6367 -84.4279 103° East  Level Estimated